sensor_id;sensor_type;location;lat;lon;timestamp;temperature;humidity
22212;DHT22;11275;52.488;13.462;2023-01-25T00:00:09;3.20;99.90
22212;DHT22;11275;52.488;13.462;2023-01-25T00:02:35;3.20;99.90
22212;DHT22;11275;52.488;13.462;2023-01-25T00:05:00;3.30;99.90
22212;DHT22;11275;52.488;13.462;2023-01-25T00:07:26;3.40;99.90
22212;DHT22;11275;52.488;13.462;2023-01-25T00:09:51;3.50;99.90
22212;DHT22;11275;52.488;13.462;2023-01-25T00:12:17;3.60;99.90
22212;DHT22;11275;52.488;13.462;2023-01-25T00:14:43;3.70;99.90
22212;DHT22;11275;52.488;13.462;2023-01-25T00:17:09;3.80;99.90
22212;DHT22;11275;52.488;13.462;2023-01-25T00:19:34;3.80;99.90
22212;DHT22;11275;52.488;13.462;2023-01-25T00:22:00;3.80;99.90
22212;DHT22;11275;52.488;13.462;2023-01-25T00:24:25;3.80;99.90
22212;DHT22;11275;52.488;13.462;2023-01-25T00:26:51;3.80;99.90
22212;DHT22;11275;52.488;13.462;2023-01-25T00:29:16;3.80;99.90
22212;DHT22;11275;52.488;13.462;2023-01-25T00:32:27;3.80;99.90
22212;DHT22;11275;52.488;13.462;2023-01-25T00:34:36;3.90;99.90
22212;DHT22;11275;52.488;13.462;2023-01-25T00:37:11;3.90;99.90
22212;DHT22;11275;52.488;13.462;2023-01-25T00:39:37;3.90;99.90
22212;DHT22;11275;52.488;13.462;2023-01-25T00:42:03;4.00;99.90
22212;DHT22;11275;52.488;13.462;2023-01-25T00:44:29;4.00;99.90
22212;DHT22;11275;52.488;13.462;2023-01-25T00:46:54;4.00;99.90
22212;DHT22;11275;52.488;13.462;2023-01-25T00:49:24;4.00;99.90
22212;DHT22;11275;52.488;13.462;2023-01-25T00:51:50;4.00;99.90
22212;DHT22;11275;52.488;13.462;2023-01-25T00:54:16;4.00;99.90
22212;DHT22;11275;52.488;13.462;2023-01-25T00:56:41;4.00;99.90
22212;DHT22;11275;52.488;13.462;2023-01-25T00:59:08;4.00;99.90
22212;DHT22;11275;52.488;13.462;2023-01-25T01:01:34;3.90;99.90
22212;DHT22;11275;52.488;13.462;2023-01-25T01:04:02;3.80;99.90
22212;DHT22;11275;52.488;13.462;2023-01-25T01:06:46;3.80;99.90
22212;DHT22;11275;52.488;13.462;2023-01-25T01:09:15;3.80;99.90
22212;DHT22;11275;52.488;13.462;2023-01-25T01:11:41;3.80;99.90
22212;DHT22;11275;52.488;13.462;2023-01-25T01:20:12;3.70;99.90
22212;DHT22;11275;52.488;13.462;2023-01-25T01:22:38;3.80;99.90
22212;DHT22;11275;52.488;13.462;2023-01-25T01:25:04;3.80;99.90
22212;DHT22;11275;52.488;13.462;2023-01-25T01:27:29;3.80;99.90
22212;DHT22;11275;52.488;13.462;2023-01-25T01:29:55;3.90;99.90
22212;DHT22;11275;52.488;13.462;2023-01-25T01:32:20;3.90;99.90
22212;DHT22;11275;52.488;13.462;2023-01-25T01:34:46;3.90;99.90
22212;DHT22;11275;52.488;13.462;2023-01-25T01:37:11;3.80;99.90
22212;DHT22;11275;52.488;13.462;2023-01-25T01:39:37;3.90;99.90
22212;DHT22;11275;52.488;13.462;2023-01-25T01:42:02;3.90;99.90
22212;DHT22;11275;52.488;13.462;2023-01-25T01:44:42;3.80;99.90
22212;DHT22;11275;52.488;13.462;2023-01-25T01:47:20;3.70;99.90
22212;DHT22;11275;52.488;13.462;2023-01-25T01:49:50;3.70;99.90
22212;DHT22;11275;52.488;13.462;2023-01-25T01:52:17;3.80;99.90
22212;DHT22;11275;52.488;13.462;2023-01-25T01:54:55;3.90;99.90
22212;DHT22;11275;52.488;13.462;2023-01-25T01:57:28;4.00;99.90
22212;DHT22;11275;52.488;13.462;2023-01-25T02:02:48;3.70;99.90
22212;DHT22;11275;52.488;13.462;2023-01-25T02:05:59;3.50;99.90
22212;DHT22;11275;52.488;13.462;2023-01-25T02:08:04;3.60;99.90
22212;DHT22;11275;52.488;13.462;2023-01-25T02:10:30;3.70;99.90
22212;DHT22;11275;52.488;13.462;2023-01-25T02:12:57;3.80;99.90
22212;DHT22;11275;52.488;13.462;2023-01-25T02:15:25;3.90;99.90
22212;DHT22;11275;52.488;13.462;2023-01-25T02:17:51;4.00;99.90
22212;DHT22;11275;52.488;13.462;2023-01-25T02:20:21;3.90;99.90
22212;DHT22;11275;52.488;13.462;2023-01-25T02:25:16;3.90;99.90
22212;DHT22;11275;52.488;13.462;2023-01-25T02:30:30;3.90;99.90
22212;DHT22;11275;52.488;13.462;2023-01-25T02:32:57;3.80;99.90
22212;DHT22;11275;52.488;13.462;2023-01-25T02:35:23;3.70;99.90
22212;DHT22;11275;52.488;13.462;2023-01-25T02:37:49;3.70;99.90
22212;DHT22;11275;52.488;13.462;2023-01-25T02:40:15;3.80;99.90
22212;DHT22;11275;52.488;13.462;2023-01-25T02:42:42;3.90;99.90
22212;DHT22;11275;52.488;13.462;2023-01-25T02:45:08;3.90;99.90
22212;DHT22;11275;52.488;13.462;2023-01-25T02:47:35;4.00;99.90
22212;DHT22;11275;52.488;13.462;2023-01-25T02:50:01;4.00;99.90
22212;DHT22;11275;52.488;13.462;2023-01-25T02:52:27;4.10;99.90
22212;DHT22;11275;52.488;13.462;2023-01-25T02:54:52;4.00;99.90
22212;DHT22;11275;52.488;13.462;2023-01-25T02:57:17;4.00;99.90
22212;DHT22;11275;52.488;13.462;2023-01-25T02:59:43;4.00;99.90
22212;DHT22;11275;52.488;13.462;2023-01-25T03:02:08;4.00;99.90
22212;DHT22;11275;52.488;13.462;2023-01-25T03:04:34;4.00;99.90
22212;DHT22;11275;52.488;13.462;2023-01-25T03:06:59;4.00;99.90
22212;DHT22;11275;52.488;13.462;2023-01-25T03:09:25;4.00;99.90
22212;DHT22;11275;52.488;13.462;2023-01-25T03:11:50;4.00;99.90
22212;DHT22;11275;52.488;13.462;2023-01-25T03:14:16;4.10;99.90
22212;DHT22;11275;52.488;13.462;2023-01-25T03:16:41;4.10;99.90
22212;DHT22;11275;52.488;13.462;2023-01-25T03:19:07;4.00;99.90
22212;DHT22;11275;52.488;13.462;2023-01-25T03:21:32;4.00;99.90
22212;DHT22;11275;52.488;13.462;2023-01-25T03:23:59;4.00;99.90
22212;DHT22;11275;52.488;13.462;2023-01-25T03:26:25;4.00;99.90
22212;DHT22;11275;52.488;13.462;2023-01-25T03:28:51;4.10;99.90
22212;DHT22;11275;52.488;13.462;2023-01-25T03:31:17;4.00;99.90
22212;DHT22;11275;52.488;13.462;2023-01-25T03:33:42;4.10;99.90
22212;DHT22;11275;52.488;13.462;2023-01-25T03:36:08;4.00;99.90
22212;DHT22;11275;52.488;13.462;2023-01-25T03:38:33;4.10;99.90
22212;DHT22;11275;52.488;13.462;2023-01-25T03:40:59;4.10;99.90
22212;DHT22;11275;52.488;13.462;2023-01-25T03:43:25;4.10;99.90
22212;DHT22;11275;52.488;13.462;2023-01-25T03:45:55;4.10;99.90
22212;DHT22;11275;52.488;13.462;2023-01-25T03:48:20;4.10;99.90
22212;DHT22;11275;52.488;13.462;2023-01-25T03:50:50;4.10;99.90
22212;DHT22;11275;52.488;13.462;2023-01-25T03:53:16;4.10;99.90
22212;DHT22;11275;52.488;13.462;2023-01-25T03:55:52;4.10;99.90
22212;DHT22;11275;52.488;13.462;2023-01-25T03:58:18;3.90;99.90
22212;DHT22;11275;52.488;13.462;2023-01-25T04:00:43;3.80;99.90
22212;DHT22;11275;52.488;13.462;2023-01-25T04:03:09;3.90;99.90
22212;DHT22;11275;52.488;13.462;2023-01-25T04:05:34;3.90;99.90
22212;DHT22;11275;52.488;13.462;2023-01-25T04:08:00;3.90;99.90
22212;DHT22;11275;52.488;13.462;2023-01-25T04:10:25;4.00;99.90
22212;DHT22;11275;52.488;13.462;2023-01-25T04:12:50;4.10;99.90
22212;DHT22;11275;52.488;13.462;2023-01-25T04:15:16;4.10;99.90
22212;DHT22;11275;52.488;13.462;2023-01-25T04:17:41;4.10;99.90
22212;DHT22;11275;52.488;13.462;2023-01-25T04:20:07;4.10;99.90
22212;DHT22;11275;52.488;13.462;2023-01-25T04:22:33;4.10;99.90
22212;DHT22;11275;52.488;13.462;2023-01-25T04:24:58;4.10;99.90
22212;DHT22;11275;52.488;13.462;2023-01-25T04:27:24;4.10;99.90
22212;DHT22;11275;52.488;13.462;2023-01-25T04:29:49;4.20;99.90
22212;DHT22;11275;52.488;13.462;2023-01-25T04:32:15;4.30;99.90
22212;DHT22;11275;52.488;13.462;2023-01-25T04:34:40;4.30;99.90
22212;DHT22;11275;52.488;13.462;2023-01-25T04:37:06;4.30;99.90
22212;DHT22;11275;52.488;13.462;2023-01-25T04:39:31;4.30;99.90
22212;DHT22;11275;52.488;13.462;2023-01-25T04:41:57;4.30;99.90
22212;DHT22;11275;52.488;13.462;2023-01-25T04:44:22;4.30;99.90
22212;DHT22;11275;52.488;13.462;2023-01-25T04:46:48;4.30;99.90
22212;DHT22;11275;52.488;13.462;2023-01-25T04:49:16;4.30;99.90
22212;DHT22;11275;52.488;13.462;2023-01-25T04:51:42;4.30;99.90
22212;DHT22;11275;52.488;13.462;2023-01-25T04:54:07;4.30;99.90
22212;DHT22;11275;52.488;13.462;2023-01-25T04:56:33;4.30;99.90
22212;DHT22;11275;52.488;13.462;2023-01-25T04:58:59;4.40;99.90
22212;DHT22;11275;52.488;13.462;2023-01-25T05:01:25;4.30;99.90
22212;DHT22;11275;52.488;13.462;2023-01-25T05:03:50;4.30;99.90
22212;DHT22;11275;52.488;13.462;2023-01-25T05:06:16;4.30;99.90
22212;DHT22;11275;52.488;13.462;2023-01-25T05:08:41;4.40;99.90
22212;DHT22;11275;52.488;13.462;2023-01-25T05:11:07;4.40;99.90
22212;DHT22;11275;52.488;13.462;2023-01-25T05:13:32;4.40;99.90
22212;DHT22;11275;52.488;13.462;2023-01-25T05:15:58;4.40;99.90
22212;DHT22;11275;52.488;13.462;2023-01-25T05:18:23;4.40;99.90
22212;DHT22;11275;52.488;13.462;2023-01-25T05:20:55;4.40;99.90
22212;DHT22;11275;52.488;13.462;2023-01-25T05:23:20;4.40;99.90
22212;DHT22;11275;52.488;13.462;2023-01-25T05:25:46;4.40;99.90
22212;DHT22;11275;52.488;13.462;2023-01-25T05:28:30;4.40;99.90
22212;DHT22;11275;52.488;13.462;2023-01-25T05:30:56;4.40;99.90
22212;DHT22;11275;52.488;13.462;2023-01-25T05:33:21;4.40;99.90
22212;DHT22;11275;52.488;13.462;2023-01-25T05:35:47;4.40;99.90
22212;DHT22;11275;52.488;13.462;2023-01-25T05:38:12;4.30;99.90
22212;DHT22;11275;52.488;13.462;2023-01-25T05:40:38;4.30;99.90
22212;DHT22;11275;52.488;13.462;2023-01-25T05:43:03;4.40;99.90
22212;DHT22;11275;52.488;13.462;2023-01-25T05:45:28;4.40;99.90
22212;DHT22;11275;52.488;13.462;2023-01-25T05:47:55;4.40;99.90
22212;DHT22;11275;52.488;13.462;2023-01-25T05:50:22;4.30;99.90
22212;DHT22;11275;52.488;13.462;2023-01-25T05:52:47;4.20;99.90
22212;DHT22;11275;52.488;13.462;2023-01-25T05:55:13;4.20;99.90
22212;DHT22;11275;52.488;13.462;2023-01-25T05:57:39;4.20;99.90
22212;DHT22;11275;52.488;13.462;2023-01-25T06:00:04;4.20;99.90
22212;DHT22;11275;52.488;13.462;2023-01-25T06:02:30;4.30;99.90
22212;DHT22;11275;52.488;13.462;2023-01-25T06:04:56;4.20;99.90
22212;DHT22;11275;52.488;13.462;2023-01-25T06:07:22;4.30;99.90
22212;DHT22;11275;52.488;13.462;2023-01-25T06:09:47;4.30;99.90
22212;DHT22;11275;52.488;13.462;2023-01-25T06:12:13;4.40;99.90
22212;DHT22;11275;52.488;13.462;2023-01-25T06:14:38;4.40;99.90
22212;DHT22;11275;52.488;13.462;2023-01-25T06:17:04;4.40;99.90
22212;DHT22;11275;52.488;13.462;2023-01-25T06:19:29;4.40;99.90
22212;DHT22;11275;52.488;13.462;2023-01-25T06:21:55;4.40;99.90
22212;DHT22;11275;52.488;13.462;2023-01-25T06:24:20;4.50;99.90
22212;DHT22;11275;52.488;13.462;2023-01-25T06:26:46;4.40;99.90
22212;DHT22;11275;52.488;13.462;2023-01-25T06:29:11;4.40;99.90
22212;DHT22;11275;52.488;13.462;2023-01-25T06:31:37;4.40;99.90
22212;DHT22;11275;52.488;13.462;2023-01-25T06:34:02;4.40;99.90
22212;DHT22;11275;52.488;13.462;2023-01-25T06:36:30;4.40;99.90
22212;DHT22;11275;52.488;13.462;2023-01-25T06:38:56;4.40;99.90
22212;DHT22;11275;52.488;13.462;2023-01-25T06:41:21;4.30;99.90
22212;DHT22;11275;52.488;13.462;2023-01-25T06:43:50;4.30;99.90
22212;DHT22;11275;52.488;13.462;2023-01-25T06:46:16;4.20;99.90
22212;DHT22;11275;52.488;13.462;2023-01-25T06:48:41;4.20;99.90
22212;DHT22;11275;52.488;13.462;2023-01-25T06:51:09;4.20;99.90
22212;DHT22;11275;52.488;13.462;2023-01-25T06:53:35;4.20;99.90
22212;DHT22;11275;52.488;13.462;2023-01-25T06:56:07;4.20;99.90
22212;DHT22;11275;52.488;13.462;2023-01-25T06:58:33;4.10;99.90
22212;DHT22;11275;52.488;13.462;2023-01-25T07:01:15;4.20;99.90
22212;DHT22;11275;52.488;13.462;2023-01-25T07:03:46;4.30;99.90
22212;DHT22;11275;52.488;13.462;2023-01-25T07:06:11;4.40;99.90
22212;DHT22;11275;52.488;13.462;2023-01-25T07:08:37;4.40;99.90
22212;DHT22;11275;52.488;13.462;2023-01-25T07:11:05;4.30;99.90
22212;DHT22;11275;52.488;13.462;2023-01-25T07:13:31;4.30;99.90
22212;DHT22;11275;52.488;13.462;2023-01-25T07:15:58;4.30;99.90
22212;DHT22;11275;52.488;13.462;2023-01-25T07:18:24;4.30;99.90
22212;DHT22;11275;52.488;13.462;2023-01-25T07:20:50;4.30;99.90
22212;DHT22;11275;52.488;13.462;2023-01-25T07:23:16;4.30;99.90
22212;DHT22;11275;52.488;13.462;2023-01-25T07:25:42;4.30;99.90
22212;DHT22;11275;52.488;13.462;2023-01-25T07:28:08;4.30;99.90
22212;DHT22;11275;52.488;13.462;2023-01-25T07:30:34;4.30;99.90
22212;DHT22;11275;52.488;13.462;2023-01-25T07:32:59;4.30;99.90
22212;DHT22;11275;52.488;13.462;2023-01-25T07:35:25;4.40;99.90
22212;DHT22;11275;52.488;13.462;2023-01-25T07:37:50;4.30;99.90
22212;DHT22;11275;52.488;13.462;2023-01-25T07:40:16;4.20;99.90
22212;DHT22;11275;52.488;13.462;2023-01-25T07:42:41;4.20;99.90
22212;DHT22;11275;52.488;13.462;2023-01-25T07:45:07;4.10;99.90
22212;DHT22;11275;52.488;13.462;2023-01-25T07:47:33;4.20;99.90
22212;DHT22;11275;52.488;13.462;2023-01-25T07:50:01;4.30;99.90
22212;DHT22;11275;52.488;13.462;2023-01-25T07:52:26;4.20;99.90
22212;DHT22;11275;52.488;13.462;2023-01-25T07:54:52;4.30;99.90
22212;DHT22;11275;52.488;13.462;2023-01-25T07:57:17;4.20;99.90
22212;DHT22;11275;52.488;13.462;2023-01-25T07:59:44;4.20;99.90
22212;DHT22;11275;52.488;13.462;2023-01-25T08:02:10;4.20;99.90
22212;DHT22;11275;52.488;13.462;2023-01-25T08:04:36;4.30;99.90
22212;DHT22;11275;52.488;13.462;2023-01-25T08:07:01;4.20;99.90
22212;DHT22;11275;52.488;13.462;2023-01-25T08:09:27;4.30;99.90
22212;DHT22;11275;52.488;13.462;2023-01-25T08:11:53;4.30;99.90
22212;DHT22;11275;52.488;13.462;2023-01-25T08:14:18;4.20;99.90
22212;DHT22;11275;52.488;13.462;2023-01-25T08:16:44;4.20;99.90
22212;DHT22;11275;52.488;13.462;2023-01-25T08:19:09;4.20;99.90
22212;DHT22;11275;52.488;13.462;2023-01-25T08:21:35;4.10;99.90
22212;DHT22;11275;52.488;13.462;2023-01-25T08:24:02;4.20;99.90
22212;DHT22;11275;52.488;13.462;2023-01-25T08:26:29;4.20;99.90
22212;DHT22;11275;52.488;13.462;2023-01-25T08:28:55;4.10;99.90
22212;DHT22;11275;52.488;13.462;2023-01-25T08:31:22;4.10;99.90
22212;DHT22;11275;52.488;13.462;2023-01-25T08:33:48;4.20;99.90
22212;DHT22;11275;52.488;13.462;2023-01-25T08:36:14;4.20;99.90
22212;DHT22;11275;52.488;13.462;2023-01-25T08:38:41;4.10;99.90
22212;DHT22;11275;52.488;13.462;2023-01-25T08:41:11;4.00;99.90
22212;DHT22;11275;52.488;13.462;2023-01-25T08:43:38;4.00;99.90
22212;DHT22;11275;52.488;13.462;2023-01-25T08:46:04;3.90;99.90
22212;DHT22;11275;52.488;13.462;2023-01-25T08:48:29;3.90;99.90
22212;DHT22;11275;52.488;13.462;2023-01-25T08:50:55;4.00;99.90
22212;DHT22;11275;52.488;13.462;2023-01-25T08:53:21;4.00;99.90
22212;DHT22;11275;52.488;13.462;2023-01-25T08:55:46;4.00;99.90
22212;DHT22;11275;52.488;13.462;2023-01-25T08:58:12;4.10;99.90
22212;DHT22;11275;52.488;13.462;2023-01-25T09:00:39;4.10;99.90
22212;DHT22;11275;52.488;13.462;2023-01-25T09:03:05;4.10;99.90
22212;DHT22;11275;52.488;13.462;2023-01-25T09:05:34;4.20;99.90
22212;DHT22;11275;52.488;13.462;2023-01-25T09:08:00;4.20;99.90
22212;DHT22;11275;52.488;13.462;2023-01-25T09:10:26;4.20;99.90
22212;DHT22;11275;52.488;13.462;2023-01-25T09:12:51;4.20;99.90
22212;DHT22;11275;52.488;13.462;2023-01-25T09:15:17;4.20;99.90
22212;DHT22;11275;52.488;13.462;2023-01-25T09:17:42;4.20;99.90
22212;DHT22;11275;52.488;13.462;2023-01-25T09:20:08;4.20;99.90
22212;DHT22;11275;52.488;13.462;2023-01-25T09:22:34;4.20;99.90
22212;DHT22;11275;52.488;13.462;2023-01-25T09:25:00;4.30;99.90
22212;DHT22;11275;52.488;13.462;2023-01-25T09:27:26;4.20;99.90
22212;DHT22;11275;52.488;13.462;2023-01-25T09:29:51;4.10;99.90
22212;DHT22;11275;52.488;13.462;2023-01-25T09:32:17;4.10;99.90
22212;DHT22;11275;52.488;13.462;2023-01-25T09:34:42;4.10;99.90
22212;DHT22;11275;52.488;13.462;2023-01-25T09:37:08;4.20;99.90
22212;DHT22;11275;52.488;13.462;2023-01-25T09:39:33;4.30;99.90
22212;DHT22;11275;52.488;13.462;2023-01-25T09:42:10;4.20;99.90
22212;DHT22;11275;52.488;13.462;2023-01-25T09:47:14;4.20;99.90
22212;DHT22;11275;52.488;13.462;2023-01-25T09:54:34;4.20;99.90
22212;DHT22;11275;52.488;13.462;2023-01-25T09:57:02;4.30;99.90
22212;DHT22;11275;52.488;13.462;2023-01-25T09:59:27;4.20;99.90
22212;DHT22;11275;52.488;13.462;2023-01-25T10:02:02;4.20;99.90
22212;DHT22;11275;52.488;13.462;2023-01-25T10:04:38;4.10;99.90
22212;DHT22;11275;52.488;13.462;2023-01-25T10:07:24;4.10;99.90
22212;DHT22;11275;52.488;13.462;2023-01-25T10:09:54;4.00;99.90
22212;DHT22;11275;52.488;13.462;2023-01-25T10:12:22;4.10;99.90
22212;DHT22;11275;52.488;13.462;2023-01-25T10:14:49;4.00;99.90
22212;DHT22;11275;52.488;13.462;2023-01-25T10:20:02;4.10;99.90
22212;DHT22;11275;52.488;13.462;2023-01-25T10:22:42;4.10;99.90
22212;DHT22;11275;52.488;13.462;2023-01-25T10:25:22;4.10;99.90
22212;DHT22;11275;52.488;13.462;2023-01-25T10:32:53;4.00;99.90
22212;DHT22;11275;52.488;13.462;2023-01-25T10:35:20;4.10;99.90
22212;DHT22;11275;52.488;13.462;2023-01-25T10:37:47;4.10;99.90
22212;DHT22;11275;52.488;13.462;2023-01-25T10:42:40;4.10;99.90
22212;DHT22;11275;52.488;13.462;2023-01-25T10:45:11;4.10;99.90
22212;DHT22;11275;52.488;13.462;2023-01-25T10:47:38;4.10;99.90
22212;DHT22;11275;52.488;13.462;2023-01-25T10:50:06;4.10;99.90
22212;DHT22;11275;52.488;13.462;2023-01-25T10:52:32;4.30;99.90
22212;DHT22;11275;52.488;13.462;2023-01-25T10:57:31;4.20;99.90
22212;DHT22;11275;52.488;13.462;2023-01-25T11:00:01;4.10;99.90
22212;DHT22;11275;52.488;13.462;2023-01-25T11:02:37;4.10;99.90
22212;DHT22;11275;52.488;13.462;2023-01-25T11:07:46;4.10;99.90
22212;DHT22;11275;52.488;13.462;2023-01-25T11:10:30;4.10;99.90
22212;DHT22;11275;52.488;13.462;2023-01-25T11:15:46;4.00;99.90
22212;DHT22;11275;52.488;13.462;2023-01-25T11:18:13;4.00;99.90
22212;DHT22;11275;52.488;13.462;2023-01-25T11:20:40;4.00;99.90
22212;DHT22;11275;52.488;13.462;2023-01-25T11:23:18;4.00;99.90
22212;DHT22;11275;52.488;13.462;2023-01-25T11:25:45;4.00;99.90
22212;DHT22;11275;52.488;13.462;2023-01-25T11:28:14;3.90;99.90
22212;DHT22;11275;52.488;13.462;2023-01-25T11:30:40;3.90;99.90
22212;DHT22;11275;52.488;13.462;2023-01-25T11:33:10;3.90;99.90
22212;DHT22;11275;52.488;13.462;2023-01-25T11:35:36;3.80;99.90
22212;DHT22;11275;52.488;13.462;2023-01-25T11:38:12;3.90;99.90
22212;DHT22;11275;52.488;13.462;2023-01-25T11:40:40;4.00;99.90
22212;DHT22;11275;52.488;13.462;2023-01-25T11:51:00;4.00;99.90
22212;DHT22;11275;52.488;13.462;2023-01-25T12:01:36;4.10;99.90
22212;DHT22;11275;52.488;13.462;2023-01-25T12:20:07;3.90;99.90
22212;DHT22;11275;52.488;13.462;2023-01-25T12:27:58;3.80;99.90
22212;DHT22;11275;52.488;13.462;2023-01-25T12:33:14;3.80;99.90
22212;DHT22;11275;52.488;13.462;2023-01-25T12:35:46;4.00;99.90
22212;DHT22;11275;52.488;13.462;2023-01-25T12:38:27;4.00;99.90
22212;DHT22;11275;52.488;13.462;2023-01-25T12:43:36;3.90;99.90
22212;DHT22;11275;52.488;13.462;2023-01-25T12:46:06;3.90;99.90
22212;DHT22;11275;52.488;13.462;2023-01-25T12:48:33;3.90;99.90
22212;DHT22;11275;52.488;13.462;2023-01-25T12:51:01;3.90;99.90
22212;DHT22;11275;52.488;13.462;2023-01-25T12:53:45;3.90;99.90
22212;DHT22;11275;52.488;13.462;2023-01-25T12:56:56;3.90;99.90
22212;DHT22;11275;52.488;13.462;2023-01-25T13:01:36;3.80;99.90
22212;DHT22;11275;52.488;13.462;2023-01-25T13:06:44;3.80;99.90
22212;DHT22;11275;52.488;13.462;2023-01-25T13:11:56;3.80;99.90
22212;DHT22;11275;52.488;13.462;2023-01-25T13:16:54;3.80;99.90
22212;DHT22;11275;52.488;13.462;2023-01-25T13:21:55;3.90;99.90
22212;DHT22;11275;52.488;13.462;2023-01-25T13:31:58;3.80;99.90
22212;DHT22;11275;52.488;13.462;2023-01-25T13:42:35;3.90;99.90
22212;DHT22;11275;52.488;13.462;2023-01-25T13:45:02;3.90;99.90
22212;DHT22;11275;52.488;13.462;2023-01-25T13:47:32;3.90;99.90
22212;DHT22;11275;52.488;13.462;2023-01-25T13:50:11;3.80;99.90
22212;DHT22;11275;52.488;13.462;2023-01-25T13:53:02;3.80;99.90
22212;DHT22;11275;52.488;13.462;2023-01-25T13:55:36;3.80;99.90
22212;DHT22;11275;52.488;13.462;2023-01-25T13:58:08;3.80;99.90
22212;DHT22;11275;52.488;13.462;2023-01-25T14:00:34;3.90;99.90
22212;DHT22;11275;52.488;13.462;2023-01-25T14:02:59;4.00;99.90
22212;DHT22;11275;52.488;13.462;2023-01-25T14:05:25;3.90;99.90
22212;DHT22;11275;52.488;13.462;2023-01-25T14:07:52;3.80;99.90
22212;DHT22;11275;52.488;13.462;2023-01-25T14:10:19;3.80;99.90
22212;DHT22;11275;52.488;13.462;2023-01-25T14:12:47;3.80;99.90
22212;DHT22;11275;52.488;13.462;2023-01-25T14:17:45;3.80;99.90
22212;DHT22;11275;52.488;13.462;2023-01-25T14:20:18;3.80;99.90
22212;DHT22;11275;52.488;13.462;2023-01-25T14:22:48;3.80;99.90
22212;DHT22;11275;52.488;13.462;2023-01-25T14:25:15;3.80;99.90
22212;DHT22;11275;52.488;13.462;2023-01-25T14:27:49;3.80;99.90
22212;DHT22;11275;52.488;13.462;2023-01-25T14:32:43;3.80;99.90
22212;DHT22;11275;52.488;13.462;2023-01-25T14:37:53;3.80;99.90
22212;DHT22;11275;52.488;13.462;2023-01-25T14:40:19;3.80;99.90
22212;DHT22;11275;52.488;13.462;2023-01-25T14:42:46;3.90;99.90
22212;DHT22;11275;52.488;13.462;2023-01-25T14:45:12;3.90;99.90
22212;DHT22;11275;52.488;13.462;2023-01-25T14:47:38;3.80;99.90
22212;DHT22;11275;52.488;13.462;2023-01-25T14:52:47;3.80;99.90
22212;DHT22;11275;52.488;13.462;2023-01-25T14:55:14;3.70;99.90
22212;DHT22;11275;52.488;13.462;2023-01-25T14:57:39;3.60;99.90
22212;DHT22;11275;52.488;13.462;2023-01-25T15:00:06;3.60;99.90
22212;DHT22;11275;52.488;13.462;2023-01-25T15:02:44;3.50;99.90
22212;DHT22;11275;52.488;13.462;2023-01-25T15:05:17;3.50;99.90
22212;DHT22;11275;52.488;13.462;2023-01-25T15:16:01;3.40;99.90
22212;DHT22;11275;52.488;13.462;2023-01-25T15:21:08;3.50;99.90
22212;DHT22;11275;52.488;13.462;2023-01-25T15:23:34;3.50;99.90
22212;DHT22;11275;52.488;13.462;2023-01-25T15:26:00;3.70;99.90
22212;DHT22;11275;52.488;13.462;2023-01-25T15:28:31;3.60;99.90
22212;DHT22;11275;52.488;13.462;2023-01-25T15:31:02;3.50;99.90
22212;DHT22;11275;52.488;13.462;2023-01-25T15:33:28;3.60;99.90
22212;DHT22;11275;52.488;13.462;2023-01-25T15:35:54;3.70;99.90
22212;DHT22;11275;52.488;13.462;2023-01-25T15:38:20;3.70;99.90
22212;DHT22;11275;52.488;13.462;2023-01-25T15:40:46;3.70;99.90
22212;DHT22;11275;52.488;13.462;2023-01-25T15:43:12;3.70;99.90
22212;DHT22;11275;52.488;13.462;2023-01-25T15:45:46;3.70;99.90
22212;DHT22;11275;52.488;13.462;2023-01-25T15:48:12;3.70;99.90
22212;DHT22;11275;52.488;13.462;2023-01-25T15:50:39;3.70;99.90
22212;DHT22;11275;52.488;13.462;2023-01-25T15:53:04;3.70;99.90
22212;DHT22;11275;52.488;13.462;2023-01-25T15:55:30;3.70;99.90
22212;DHT22;11275;52.488;13.462;2023-01-25T15:57:56;3.70;99.90
22212;DHT22;11275;52.488;13.462;2023-01-25T16:00:22;3.70;99.90
22212;DHT22;11275;52.488;13.462;2023-01-25T16:02:48;3.70;99.90
22212;DHT22;11275;52.488;13.462;2023-01-25T16:05:14;3.60;99.90
22212;DHT22;11275;52.488;13.462;2023-01-25T16:07:39;3.60;99.90
22212;DHT22;11275;52.488;13.462;2023-01-25T16:10:17;3.60;99.90
22212;DHT22;11275;52.488;13.462;2023-01-25T16:12:42;3.60;99.90
22212;DHT22;11275;52.488;13.462;2023-01-25T16:15:08;3.60;99.90
22212;DHT22;11275;52.488;13.462;2023-01-25T16:17:33;3.50;99.90
22212;DHT22;11275;52.488;13.462;2023-01-25T16:19:59;3.50;99.90
22212;DHT22;11275;52.488;13.462;2023-01-25T16:22:24;3.50;99.90
22212;DHT22;11275;52.488;13.462;2023-01-25T16:24:50;3.60;99.90
22212;DHT22;11275;52.488;13.462;2023-01-25T16:27:16;3.60;99.90
22212;DHT22;11275;52.488;13.462;2023-01-25T16:29:47;3.50;99.90
22212;DHT22;11275;52.488;13.462;2023-01-25T16:32:13;3.60;99.90
22212;DHT22;11275;52.488;13.462;2023-01-25T16:34:38;3.70;99.90
22212;DHT22;11275;52.488;13.462;2023-01-25T16:37:04;3.60;99.90
22212;DHT22;11275;52.488;13.462;2023-01-25T16:39:29;3.70;99.90
22212;DHT22;11275;52.488;13.462;2023-01-25T16:41:56;3.70;99.90
22212;DHT22;11275;52.488;13.462;2023-01-25T16:44:22;3.70;99.90
22212;DHT22;11275;52.488;13.462;2023-01-25T16:46:47;3.60;99.90
22212;DHT22;11275;52.488;13.462;2023-01-25T16:49:15;3.60;99.90
22212;DHT22;11275;52.488;13.462;2023-01-25T16:51:41;3.50;99.90
22212;DHT22;11275;52.488;13.462;2023-01-25T16:54:07;3.60;99.90
22212;DHT22;11275;52.488;13.462;2023-01-25T16:56:34;3.60;99.90
22212;DHT22;11275;52.488;13.462;2023-01-25T16:59:00;3.60;99.90
22212;DHT22;11275;52.488;13.462;2023-01-25T17:01:26;3.50;99.90
22212;DHT22;11275;52.488;13.462;2023-01-25T17:03:53;3.50;99.90
22212;DHT22;11275;52.488;13.462;2023-01-25T17:06:23;3.50;99.90
22212;DHT22;11275;52.488;13.462;2023-01-25T17:08:49;3.50;99.90
22212;DHT22;11275;52.488;13.462;2023-01-25T17:11:14;3.50;99.90
22212;DHT22;11275;52.488;13.462;2023-01-25T17:13:45;3.60;99.90
22212;DHT22;11275;52.488;13.462;2023-01-25T17:16:11;3.50;99.90
22212;DHT22;11275;52.488;13.462;2023-01-25T17:18:37;3.50;99.90
22212;DHT22;11275;52.488;13.462;2023-01-25T17:21:03;3.50;99.90
22212;DHT22;11275;52.488;13.462;2023-01-25T17:23:30;3.40;99.90
22212;DHT22;11275;52.488;13.462;2023-01-25T17:25:56;3.30;99.90
22212;DHT22;11275;52.488;13.462;2023-01-25T17:28:21;3.40;99.90
22212;DHT22;11275;52.488;13.462;2023-01-25T17:30:47;3.40;99.90
22212;DHT22;11275;52.488;13.462;2023-01-25T17:33:15;3.40;99.90
22212;DHT22;11275;52.488;13.462;2023-01-25T17:35:41;3.40;99.90
22212;DHT22;11275;52.488;13.462;2023-01-25T17:38:06;3.40;99.90
22212;DHT22;11275;52.488;13.462;2023-01-25T17:40:33;3.50;99.90
22212;DHT22;11275;52.488;13.462;2023-01-25T17:42:59;3.30;99.90